map of MZL home
MZL - Airport
Location
City:  Manizales, Caldas, Colombia
Name:La Nubia Airport
Old (Alt.):Santaguida
ICAO:SKMZ
IATA:MZL

Details
Type:Airport (Aerodrome, Airfield)
Latitude:5°01'48"N (5.029992)
Longitude:75°27'54"W (-75.465113)
Elevation:6871 ft (2094 m)
Variation:6.58°W (WMM2015 magnetic declination)
-0.15° annual change
Runways:1
Longest:4835 × 65 ft (1474 × 20 m), paved

Time
Time Zone:UTC-5
Local Time:

Weather
METAR:SKMZ 161100Z 11005KT 9999 SCT015 13/10 A3032 RMK HZ

Related Locations
Nearby:
Farthest:WIPD: 12409 mi / 19971 km
Pasar Bandingagung [Banding Agung], SS, ID

Find:

   beyond  
but within

Other Information
Maps:
NOTAMs:
Links:
Sources:

  
  • flag of Colombia
  • flag of Caldas
  

Sectional Chart

Flight Planning
at skyvector.com

Satellite Image

Google Maps Satellite view

 

Copyright © 2004-2018 Karl L. Swartz. All rights reserved.
The Great Circle Mapper name and logo are trademarks of the Great Circle Mapper.
All other trademarks mentioned herein belong to their respective owners.
Please see credits for attibutions and further copyright information.

  Follow gcmap on Facebook Follow gcmap on Twitter Follow gcmap on Google+ GCmap on LinkedIn

hCard Microformat

Geo Microformat